sensor_id;sensor_type;location;lat;lon;timestamp;P1;durP1;ratioP1;P2;durP2;ratioP2
20653;SDS011;21083;50.898;4.902;2022-11-20T00:00:40;29.83;;;14.85;;
20653;SDS011;21083;50.898;4.902;2022-11-20T00:03:06;33.38;;;16.50;;
20653;SDS011;21083;50.898;4.902;2022-11-20T00:05:35;29.85;;;15.90;;
20653;SDS011;21083;50.898;4.902;2022-11-20T00:08:02;34.38;;;16.08;;
20653;SDS011;21083;50.898;4.902;2022-11-20T00:10:29;38.38;;;15.43;;
20653;SDS011;21083;50.898;4.902;2022-11-20T00:12:57;35.22;;;17.58;;
20653;SDS011;21083;50.898;4.902;2022-11-20T00:15:24;38.92;;;16.33;;
20653;SDS011;21083;50.898;4.902;2022-11-20T00:17:51;34.22;;;16.27;;
20653;SDS011;21083;50.898;4.902;2022-11-20T00:20:17;30.70;;;15.13;;
20653;SDS011;21083;50.898;4.902;2022-11-20T00:22:46;32.28;;;15.65;;
20653;SDS011;21083;50.898;4.902;2022-11-20T00:25:13;35.67;;;16.02;;
20653;SDS011;21083;50.898;4.902;2022-11-20T00:27:40;33.72;;;16.42;;
20653;SDS011;21083;50.898;4.902;2022-11-20T00:30:07;33.42;;;16.55;;
20653;SDS011;21083;50.898;4.902;2022-11-20T00:32:34;34.55;;;16.92;;
20653;SDS011;21083;50.898;4.902;2022-11-20T00:35:01;35.03;;;17.25;;
20653;SDS011;21083;50.898;4.902;2022-11-20T00:37:28;31.75;;;16.42;;
20653;SDS011;21083;50.898;4.902;2022-11-20T00:39:56;32.25;;;16.08;;
20653;SDS011;21083;50.898;4.902;2022-11-20T00:42:23;32.50;;;16.27;;
20653;SDS011;21083;50.898;4.902;2022-11-20T00:44:50;33.50;;;17.13;;
20653;SDS011;21083;50.898;4.902;2022-11-20T00:47:17;34.70;;;17.55;;
20653;SDS011;21083;50.898;4.902;2022-11-20T00:49:44;33.20;;;16.35;;
20653;SDS011;21083;50.898;4.902;2022-11-20T00:52:11;34.67;;;16.90;;
20653;SDS011;21083;50.898;4.902;2022-11-20T00:54:38;36.25;;;17.95;;
20653;SDS011;21083;50.898;4.902;2022-11-20T00:57:06;35.40;;;17.10;;
20653;SDS011;21083;50.898;4.902;2022-11-20T00:59:33;35.00;;;17.02;;
20653;SDS011;21083;50.898;4.902;2022-11-20T01:01:59;32.55;;;17.17;;
20653;SDS011;21083;50.898;4.902;2022-11-20T01:04:26;32.38;;;16.23;;
20653;SDS011;21083;50.898;4.902;2022-11-20T01:06:53;36.72;;;17.02;;
20653;SDS011;21083;50.898;4.902;2022-11-20T01:09:20;36.17;;;18.40;;
20653;SDS011;21083;50.898;4.902;2022-11-20T01:11:47;39.45;;;18.00;;
20653;SDS011;21083;50.898;4.902;2022-11-20T01:14:16;36.63;;;18.17;;
20653;SDS011;21083;50.898;4.902;2022-11-20T01:16:45;36.90;;;17.73;;
20653;SDS011;21083;50.898;4.902;2022-11-20T01:19:13;38.70;;;18.13;;
20653;SDS011;21083;50.898;4.902;2022-11-20T01:21:43;34.90;;;18.05;;
20653;SDS011;21083;50.898;4.902;2022-11-20T01:24:12;37.55;;;18.25;;
20653;SDS011;21083;50.898;4.902;2022-11-20T01:26:41;39.63;;;19.05;;
20653;SDS011;21083;50.898;4.902;2022-11-20T01:29:09;37.05;;;18.92;;
20653;SDS011;21083;50.898;4.902;2022-11-20T01:31:41;36.45;;;17.10;;
20653;SDS011;21083;50.898;4.902;2022-11-20T01:34:09;42.13;;;18.58;;
20653;SDS011;21083;50.898;4.902;2022-11-20T01:36:38;35.80;;;18.20;;
20653;SDS011;21083;50.898;4.902;2022-11-20T01:39:07;34.85;;;18.25;;
20653;SDS011;21083;50.898;4.902;2022-11-20T01:41:37;36.25;;;17.80;;
20653;SDS011;21083;50.898;4.902;2022-11-20T01:47:16;37.17;;;18.60;;
20653;SDS011;21083;50.898;4.902;2022-11-20T01:49:48;35.65;;;18.45;;
20653;SDS011;21083;50.898;4.902;2022-11-20T01:52:19;34.50;;;17.08;;
20653;SDS011;21083;50.898;4.902;2022-11-20T01:54:50;35.28;;;17.90;;
20653;SDS011;21083;50.898;4.902;2022-11-20T01:57:21;36.85;;;18.60;;
20653;SDS011;21083;50.898;4.902;2022-11-20T01:59:51;35.85;;;18.20;;
20653;SDS011;21083;50.898;4.902;2022-11-20T02:02:23;39.50;;;18.92;;
20653;SDS011;21083;50.898;4.902;2022-11-20T02:04:50;34.08;;;18.00;;
20653;SDS011;21083;50.898;4.902;2022-11-20T02:07:20;37.15;;;18.42;;
20653;SDS011;21083;50.898;4.902;2022-11-20T02:09:48;33.92;;;17.75;;
20653;SDS011;21083;50.898;4.902;2022-11-20T02:12:15;36.72;;;18.27;;
20653;SDS011;21083;50.898;4.902;2022-11-20T02:14:56;38.05;;;17.83;;
20653;SDS011;21083;50.898;4.902;2022-11-20T02:17:25;37.08;;;17.52;;
20653;SDS011;21083;50.898;4.902;2022-11-20T02:19:52;38.20;;;18.75;;
20653;SDS011;21083;50.898;4.902;2022-11-20T02:22:21;35.95;;;17.55;;
20653;SDS011;21083;50.898;4.902;2022-11-20T02:24:56;35.25;;;17.77;;
20653;SDS011;21083;50.898;4.902;2022-11-20T02:27:24;35.40;;;19.23;;
20653;SDS011;21083;50.898;4.902;2022-11-20T02:29:53;36.75;;;18.40;;
20653;SDS011;21083;50.898;4.902;2022-11-20T02:32:24;38.58;;;19.50;;
20653;SDS011;21083;50.898;4.902;2022-11-20T02:34:52;40.85;;;19.60;;
20653;SDS011;21083;50.898;4.902;2022-11-20T02:37:20;36.22;;;18.67;;
20653;SDS011;21083;50.898;4.902;2022-11-20T02:39:49;36.95;;;18.85;;
20653;SDS011;21083;50.898;4.902;2022-11-20T02:42:18;36.45;;;18.63;;
20653;SDS011;21083;50.898;4.902;2022-11-20T02:44:45;35.03;;;17.38;;
20653;SDS011;21083;50.898;4.902;2022-11-20T02:47:12;42.75;;;18.35;;
20653;SDS011;21083;50.898;4.902;2022-11-20T02:49:40;36.40;;;18.13;;
20653;SDS011;21083;50.898;4.902;2022-11-20T02:52:07;34.78;;;17.45;;
20653;SDS011;21083;50.898;4.902;2022-11-20T02:54:34;37.13;;;18.45;;
20653;SDS011;21083;50.898;4.902;2022-11-20T02:57:00;36.92;;;18.70;;
20653;SDS011;21083;50.898;4.902;2022-11-20T02:59:29;36.03;;;18.77;;
20653;SDS011;21083;50.898;4.902;2022-11-20T03:01:55;34.55;;;18.35;;
20653;SDS011;21083;50.898;4.902;2022-11-20T03:04:22;41.47;;;19.65;;
20653;SDS011;21083;50.898;4.902;2022-11-20T03:06:49;41.08;;;20.33;;
20653;SDS011;21083;50.898;4.902;2022-11-20T03:09:16;40.30;;;19.40;;
20653;SDS011;21083;50.898;4.902;2022-11-20T03:11:43;36.08;;;19.00;;
20653;SDS011;21083;50.898;4.902;2022-11-20T03:14:10;36.15;;;18.23;;
20653;SDS011;21083;50.898;4.902;2022-11-20T03:16:38;37.90;;;19.48;;
20653;SDS011;21083;50.898;4.902;2022-11-20T03:19:05;38.90;;;19.92;;
20653;SDS011;21083;50.898;4.902;2022-11-20T03:21:32;46.00;;;19.95;;
20653;SDS011;21083;50.898;4.902;2022-11-20T03:23:59;39.33;;;19.77;;
20653;SDS011;21083;50.898;4.902;2022-11-20T03:26:27;38.58;;;18.35;;
20653;SDS011;21083;50.898;4.902;2022-11-20T03:28:55;40.97;;;19.83;;
20653;SDS011;21083;50.898;4.902;2022-11-20T03:31:23;37.72;;;19.63;;
20653;SDS011;21083;50.898;4.902;2022-11-20T03:33:53;38.20;;;19.58;;
20653;SDS011;21083;50.898;4.902;2022-11-20T03:36:20;46.90;;;20.90;;
20653;SDS011;21083;50.898;4.902;2022-11-20T03:38:47;41.10;;;19.67;;
20653;SDS011;21083;50.898;4.902;2022-11-20T03:41:15;44.55;;;21.05;;
20653;SDS011;21083;50.898;4.902;2022-11-20T03:43:46;41.92;;;20.20;;
20653;SDS011;21083;50.898;4.902;2022-11-20T03:46:14;39.60;;;20.02;;
20653;SDS011;21083;50.898;4.902;2022-11-20T03:48:41;43.83;;;20.98;;
20653;SDS011;21083;50.898;4.902;2022-11-20T03:51:10;38.45;;;19.42;;
20653;SDS011;21083;50.898;4.902;2022-11-20T03:53:38;41.15;;;20.05;;
20653;SDS011;21083;50.898;4.902;2022-11-20T03:56:06;44.65;;;20.63;;
20653;SDS011;21083;50.898;4.902;2022-11-20T03:58:34;44.88;;;20.00;;
20653;SDS011;21083;50.898;4.902;2022-11-20T04:01:06;40.05;;;21.08;;
20653;SDS011;21083;50.898;4.902;2022-11-20T04:03:34;39.53;;;19.23;;
20653;SDS011;21083;50.898;4.902;2022-11-20T04:06:02;46.97;;;21.42;;
20653;SDS011;21083;50.898;4.902;2022-11-20T04:08:31;46.72;;;21.50;;
20653;SDS011;21083;50.898;4.902;2022-11-20T04:11:07;46.13;;;23.38;;
20653;SDS011;21083;50.898;4.902;2022-11-20T04:13:35;43.80;;;20.63;;
20653;SDS011;21083;50.898;4.902;2022-11-20T04:16:03;48.15;;;21.58;;
20653;SDS011;21083;50.898;4.902;2022-11-20T04:18:30;47.40;;;21.65;;
20653;SDS011;21083;50.898;4.902;2022-11-20T04:20:57;62.20;;;23.38;;
20653;SDS011;21083;50.898;4.902;2022-11-20T04:23:24;57.67;;;24.48;;
20653;SDS011;21083;50.898;4.902;2022-11-20T04:25:53;58.53;;;25.15;;
20653;SDS011;21083;50.898;4.902;2022-11-20T04:28:20;57.40;;;23.55;;
20653;SDS011;21083;50.898;4.902;2022-11-20T04:30:47;55.42;;;23.35;;
20653;SDS011;21083;50.898;4.902;2022-11-20T04:33:13;56.13;;;25.40;;
20653;SDS011;21083;50.898;4.902;2022-11-20T04:35:40;59.47;;;25.60;;
20653;SDS011;21083;50.898;4.902;2022-11-20T04:38:07;56.53;;;24.70;;
20653;SDS011;21083;50.898;4.902;2022-11-20T04:40:34;59.90;;;25.85;;
20653;SDS011;21083;50.898;4.902;2022-11-20T04:43:02;61.75;;;25.77;;
20653;SDS011;21083;50.898;4.902;2022-11-20T04:45:29;65.00;;;26.17;;
20653;SDS011;21083;50.898;4.902;2022-11-20T04:47:56;61.45;;;26.00;;
20653;SDS011;21083;50.898;4.902;2022-11-20T04:50:23;62.88;;;26.17;;
20653;SDS011;21083;50.898;4.902;2022-11-20T04:52:49;65.28;;;26.73;;
20653;SDS011;21083;50.898;4.902;2022-11-20T04:55:16;62.88;;;23.98;;
20653;SDS011;21083;50.898;4.902;2022-11-20T04:57:43;61.92;;;25.33;;
20653;SDS011;21083;50.898;4.902;2022-11-20T05:00:12;61.85;;;24.58;;
20653;SDS011;21083;50.898;4.902;2022-11-20T05:02:40;57.95;;;24.88;;
20653;SDS011;21083;50.898;4.902;2022-11-20T05:05:07;59.90;;;24.88;;
20653;SDS011;21083;50.898;4.902;2022-11-20T05:07:34;58.42;;;25.20;;
20653;SDS011;21083;50.898;4.902;2022-11-20T05:10:01;58.78;;;25.52;;
20653;SDS011;21083;50.898;4.902;2022-11-20T05:12:28;66.32;;;24.85;;
20653;SDS011;21083;50.898;4.902;2022-11-20T05:14:55;55.20;;;24.35;;
20653;SDS011;21083;50.898;4.902;2022-11-20T05:17:23;56.88;;;24.25;;
20653;SDS011;21083;50.898;4.902;2022-11-20T05:19:50;57.58;;;23.60;;
20653;SDS011;21083;50.898;4.902;2022-11-20T05:22:16;54.28;;;23.58;;
20653;SDS011;21083;50.898;4.902;2022-11-20T05:24:43;56.15;;;23.20;;
20653;SDS011;21083;50.898;4.902;2022-11-20T05:27:10;52.40;;;23.98;;
20653;SDS011;21083;50.898;4.902;2022-11-20T05:29:37;55.20;;;22.90;;
20653;SDS011;21083;50.898;4.902;2022-11-20T05:32:04;50.30;;;23.10;;
20653;SDS011;21083;50.898;4.902;2022-11-20T05:34:35;50.25;;;22.40;;
20653;SDS011;21083;50.898;4.902;2022-11-20T05:37:02;50.65;;;22.85;;
20653;SDS011;21083;50.898;4.902;2022-11-20T05:39:29;59.70;;;23.80;;
20653;SDS011;21083;50.898;4.902;2022-11-20T05:41:56;48.72;;;21.95;;
20653;SDS011;21083;50.898;4.902;2022-11-20T05:44:37;58.90;;;23.88;;
20653;SDS011;21083;50.898;4.902;2022-11-20T05:47:04;56.97;;;22.77;;
20653;SDS011;21083;50.898;4.902;2022-11-20T05:49:31;51.20;;;22.30;;
20653;SDS011;21083;50.898;4.902;2022-11-20T05:51:59;50.83;;;23.40;;
20653;SDS011;21083;50.898;4.902;2022-11-20T05:54:26;56.38;;;22.80;;
20653;SDS011;21083;50.898;4.902;2022-11-20T05:56:53;49.55;;;20.77;;
20653;SDS011;21083;50.898;4.902;2022-11-20T05:59:20;48.03;;;20.33;;
20653;SDS011;21083;50.898;4.902;2022-11-20T06:01:47;46.17;;;21.80;;
20653;SDS011;21083;50.898;4.902;2022-11-20T06:04:14;53.47;;;23.13;;
20653;SDS011;21083;50.898;4.902;2022-11-20T06:06:40;50.45;;;21.48;;
20653;SDS011;21083;50.898;4.902;2022-11-20T06:09:09;47.40;;;22.15;;
20653;SDS011;21083;50.898;4.902;2022-11-20T06:11:36;50.88;;;23.60;;
20653;SDS011;21083;50.898;4.902;2022-11-20T06:14:03;48.47;;;21.83;;
20653;SDS011;21083;50.898;4.902;2022-11-20T06:16:29;53.40;;;23.60;;
20653;SDS011;21083;50.898;4.902;2022-11-20T06:18:56;56.38;;;24.90;;
20653;SDS011;21083;50.898;4.902;2022-11-20T06:21:23;46.38;;;20.65;;
20653;SDS011;21083;50.898;4.902;2022-11-20T06:23:51;57.65;;;22.63;;
20653;SDS011;21083;50.898;4.902;2022-11-20T06:26:20;44.17;;;21.98;;
20653;SDS011;21083;50.898;4.902;2022-11-20T06:28:49;51.38;;;21.23;;
20653;SDS011;21083;50.898;4.902;2022-11-20T06:31:17;47.97;;;22.00;;
20653;SDS011;21083;50.898;4.902;2022-11-20T06:33:45;46.60;;;21.17;;
20653;SDS011;21083;50.898;4.902;2022-11-20T06:36:13;49.25;;;22.13;;
20653;SDS011;21083;50.898;4.902;2022-11-20T06:38:42;48.22;;;20.90;;
20653;SDS011;21083;50.898;4.902;2022-11-20T06:41:10;49.13;;;22.15;;
20653;SDS011;21083;50.898;4.902;2022-11-20T06:43:40;65.50;;;29.25;;
20653;SDS011;21083;50.898;4.902;2022-11-20T06:46:08;50.47;;;22.50;;
20653;SDS011;21083;50.898;4.902;2022-11-20T06:48:36;51.22;;;21.75;;
20653;SDS011;21083;50.898;4.902;2022-11-20T06:51:03;53.17;;;23.13;;
20653;SDS011;21083;50.898;4.902;2022-11-20T06:53:31;48.90;;;21.77;;
20653;SDS011;21083;50.898;4.902;2022-11-20T06:55:58;50.08;;;22.65;;
20653;SDS011;21083;50.898;4.902;2022-11-20T06:58:26;56.40;;;23.63;;
20653;SDS011;21083;50.898;4.902;2022-11-20T07:00:57;55.08;;;23.20;;
20653;SDS011;21083;50.898;4.902;2022-11-20T07:03:24;49.90;;;21.20;;
20653;SDS011;21083;50.898;4.902;2022-11-20T07:05:51;44.08;;;20.65;;
20653;SDS011;21083;50.898;4.902;2022-11-20T07:08:20;44.25;;;19.95;;
20653;SDS011;21083;50.898;4.902;2022-11-20T07:10:47;55.42;;;23.33;;
20653;SDS011;21083;50.898;4.902;2022-11-20T07:13:14;53.55;;;25.58;;
20653;SDS011;21083;50.898;4.902;2022-11-20T07:15:40;53.90;;;28.10;;
20653;SDS011;21083;50.898;4.902;2022-11-20T07:18:09;52.45;;;23.65;;
20653;SDS011;21083;50.898;4.902;2022-11-20T07:20:36;44.13;;;19.65;;
20653;SDS011;21083;50.898;4.902;2022-11-20T07:23:03;43.40;;;19.50;;
20653;SDS011;21083;50.898;4.902;2022-11-20T07:25:29;46.40;;;20.05;;
20653;SDS011;21083;50.898;4.902;2022-11-20T07:27:56;48.25;;;20.55;;
20653;SDS011;21083;50.898;4.902;2022-11-20T07:30:24;50.65;;;19.73;;
20653;SDS011;21083;50.898;4.902;2022-11-20T07:32:51;47.13;;;20.77;;
20653;SDS011;21083;50.898;4.902;2022-11-20T07:35:19;56.13;;;21.35;;
20653;SDS011;21083;50.898;4.902;2022-11-20T07:37:46;49.95;;;20.83;;
20653;SDS011;21083;50.898;4.902;2022-11-20T07:40:13;57.60;;;24.00;;
20653;SDS011;21083;50.898;4.902;2022-11-20T07:42:46;48.58;;;19.95;;
20653;SDS011;21083;50.898;4.902;2022-11-20T07:45:14;49.90;;;20.60;;
20653;SDS011;21083;50.898;4.902;2022-11-20T07:47:40;55.70;;;21.30;;
20653;SDS011;21083;50.898;4.902;2022-11-20T07:50:07;57.28;;;21.58;;
20653;SDS011;21083;50.898;4.902;2022-11-20T07:52:36;51.13;;;21.08;;
20653;SDS011;21083;50.898;4.902;2022-11-20T07:55:03;52.15;;;21.58;;
20653;SDS011;21083;50.898;4.902;2022-11-20T07:57:31;53.78;;;22.55;;
20653;SDS011;21083;50.898;4.902;2022-11-20T07:59:58;55.38;;;21.48;;
20653;SDS011;21083;50.898;4.902;2022-11-20T08:02:25;58.35;;;21.90;;
20653;SDS011;21083;50.898;4.902;2022-11-20T08:04:52;60.40;;;20.92;;
20653;SDS011;21083;50.898;4.902;2022-11-20T08:07:18;60.47;;;24.08;;
20653;SDS011;21083;50.898;4.902;2022-11-20T08:09:47;65.28;;;23.63;;
20653;SDS011;21083;50.898;4.902;2022-11-20T08:12:16;68.65;;;23.95;;
20653;SDS011;21083;50.898;4.902;2022-11-20T08:15:02;72.63;;;23.23;;
20653;SDS011;21083;50.898;4.902;2022-11-20T08:17:29;69.82;;;23.58;;
20653;SDS011;21083;50.898;4.902;2022-11-20T08:19:56;70.75;;;23.50;;
20653;SDS011;21083;50.898;4.902;2022-11-20T08:22:22;72.20;;;24.67;;
20653;SDS011;21083;50.898;4.902;2022-11-20T08:24:51;74.90;;;25.45;;
20653;SDS011;21083;50.898;4.902;2022-11-20T08:27:18;69.68;;;23.33;;
20653;SDS011;21083;50.898;4.902;2022-11-20T08:29:45;73.57;;;24.98;;
20653;SDS011;21083;50.898;4.902;2022-11-20T08:32:12;70.35;;;23.23;;
20653;SDS011;21083;50.898;4.902;2022-11-20T08:34:38;71.38;;;23.55;;
20653;SDS011;21083;50.898;4.902;2022-11-20T08:37:05;64.78;;;23.73;;
20653;SDS011;21083;50.898;4.902;2022-11-20T08:39:32;78.10;;;25.63;;
20653;SDS011;21083;50.898;4.902;2022-11-20T08:42:00;78.88;;;24.52;;
20653;SDS011;21083;50.898;4.902;2022-11-20T08:44:27;82.53;;;25.73;;
20653;SDS011;21083;50.898;4.902;2022-11-20T08:46:54;69.03;;;24.48;;
20653;SDS011;21083;50.898;4.902;2022-11-20T08:49:22;65.75;;;22.98;;
20653;SDS011;21083;50.898;4.902;2022-11-20T08:51:48;66.93;;;24.63;;
20653;SDS011;21083;50.898;4.902;2022-11-20T08:54:18;66.38;;;23.13;;
20653;SDS011;21083;50.898;4.902;2022-11-20T08:56:47;68.20;;;25.55;;
20653;SDS011;21083;50.898;4.902;2022-11-20T08:59:15;71.45;;;24.83;;
20653;SDS011;21083;50.898;4.902;2022-11-20T09:01:42;76.32;;;24.75;;
20653;SDS011;21083;50.898;4.902;2022-11-20T09:04:09;65.78;;;23.30;;
20653;SDS011;21083;50.898;4.902;2022-11-20T09:06:36;69.75;;;23.63;;
20653;SDS011;21083;50.898;4.902;2022-11-20T09:09:03;90.05;;;29.92;;
20653;SDS011;21083;50.898;4.902;2022-11-20T09:11:30;74.88;;;26.52;;
20653;SDS011;21083;50.898;4.902;2022-11-20T09:13:57;74.22;;;25.75;;
20653;SDS011;21083;50.898;4.902;2022-11-20T09:16:26;71.88;;;25.48;;
20653;SDS011;21083;50.898;4.902;2022-11-20T09:18:53;82.50;;;27.70;;
20653;SDS011;21083;50.898;4.902;2022-11-20T09:21:20;70.05;;;24.05;;
20653;SDS011;21083;50.898;4.902;2022-11-20T09:23:47;68.25;;;24.30;;
20653;SDS011;21083;50.898;4.902;2022-11-20T09:26:14;83.55;;;25.52;;
20653;SDS011;21083;50.898;4.902;2022-11-20T09:28:41;83.60;;;26.88;;
20653;SDS011;21083;50.898;4.902;2022-11-20T09:31:09;73.72;;;24.10;;
20653;SDS011;21083;50.898;4.902;2022-11-20T09:33:45;79.25;;;25.38;;
20653;SDS011;21083;50.898;4.902;2022-11-20T09:36:12;70.40;;;26.25;;
20653;SDS011;21083;50.898;4.902;2022-11-20T09:38:39;75.18;;;25.73;;
20653;SDS011;21083;50.898;4.902;2022-11-20T09:41:06;77.85;;;26.83;;
20653;SDS011;21083;50.898;4.902;2022-11-20T09:43:49;79.97;;;26.70;;
20653;SDS011;21083;50.898;4.902;2022-11-20T09:46:28;76.38;;;26.40;;
20653;SDS011;21083;50.898;4.902;2022-11-20T09:49:12;88.90;;;26.25;;
20653;SDS011;21083;50.898;4.902;2022-11-20T09:51:50;78.70;;;24.40;;
20653;SDS011;21083;50.898;4.902;2022-11-20T09:54:25;69.50;;;24.77;;
20653;SDS011;21083;50.898;4.902;2022-11-20T09:56:58;74.90;;;23.80;;
20653;SDS011;21083;50.898;4.902;2022-11-20T09:59:29;75.82;;;23.73;;
20653;SDS011;21083;50.898;4.902;2022-11-20T10:02:08;82.68;;;23.85;;
20653;SDS011;21083;50.898;4.902;2022-11-20T10:04:53;72.78;;;24.00;;
20653;SDS011;21083;50.898;4.902;2022-11-20T10:07:27;87.13;;;31.42;;
20653;SDS011;21083;50.898;4.902;2022-11-20T10:09:58;70.72;;;26.08;;
20653;SDS011;21083;50.898;4.902;2022-11-20T10:12:27;76.75;;;28.02;;
20653;SDS011;21083;50.898;4.902;2022-11-20T10:15:10;68.32;;;23.05;;
20653;SDS011;21083;50.898;4.902;2022-11-20T10:17:55;67.13;;;23.05;;
20653;SDS011;21083;50.898;4.902;2022-11-20T10:20:38;71.03;;;23.17;;
20653;SDS011;21083;50.898;4.902;2022-11-20T10:23:20;65.00;;;22.45;;
20653;SDS011;21083;50.898;4.902;2022-11-20T10:26:11;64.68;;;22.55;;
20653;SDS011;21083;50.898;4.902;2022-11-20T10:28:51;62.75;;;22.00;;
20653;SDS011;21083;50.898;4.902;2022-11-20T10:31:29;60.28;;;21.55;;
20653;SDS011;21083;50.898;4.902;2022-11-20T10:33:59;65.50;;;22.77;;
20653;SDS011;21083;50.898;4.902;2022-11-20T10:36:33;63.92;;;24.13;;
20653;SDS011;21083;50.898;4.902;2022-11-20T10:39:06;69.28;;;22.50;;
20653;SDS011;21083;50.898;4.902;2022-11-20T10:41:41;65.65;;;21.98;;
20653;SDS011;21083;50.898;4.902;2022-11-20T10:44:13;65.85;;;23.52;;
20653;SDS011;21083;50.898;4.902;2022-11-20T10:47:03;63.60;;;21.75;;
20653;SDS011;21083;50.898;4.902;2022-11-20T10:49:31;64.90;;;24.20;;
20653;SDS011;21083;50.898;4.902;2022-11-20T10:52:02;63.63;;;23.48;;
20653;SDS011;21083;50.898;4.902;2022-11-20T10:54:38;64.30;;;25.13;;
20653;SDS011;21083;50.898;4.902;2022-11-20T10:57:14;62.60;;;21.55;;
20653;SDS011;21083;50.898;4.902;2022-11-20T10:59:55;61.30;;;24.70;;
20653;SDS011;21083;50.898;4.902;2022-11-20T11:02:34;68.20;;;25.58;;
20653;SDS011;21083;50.898;4.902;2022-11-20T11:05:10;53.63;;;20.75;;
20653;SDS011;21083;50.898;4.902;2022-11-20T11:07:48;54.40;;;22.95;;
20653;SDS011;21083;50.898;4.902;2022-11-20T11:10:17;49.67;;;19.98;;
20653;SDS011;21083;50.898;4.902;2022-11-20T11:12:47;56.90;;;23.52;;
20653;SDS011;21083;50.898;4.902;2022-11-20T11:15:24;47.33;;;18.90;;
20653;SDS011;21083;50.898;4.902;2022-11-20T11:17:52;50.97;;;20.85;;
20653;SDS011;21083;50.898;4.902;2022-11-20T11:20:20;43.85;;;17.67;;
20653;SDS011;21083;50.898;4.902;2022-11-20T11:22:50;40.63;;;16.98;;
20653;SDS011;21083;50.898;4.902;2022-11-20T11:25:22;35.50;;;15.10;;
20653;SDS011;21083;50.898;4.902;2022-11-20T11:27:51;38.10;;;15.70;;
20653;SDS011;21083;50.898;4.902;2022-11-20T11:30:20;31.73;;;13.98;;
20653;SDS011;21083;50.898;4.902;2022-11-20T11:33:01;30.58;;;13.23;;
20653;SDS011;21083;50.898;4.902;2022-11-20T11:35:29;27.40;;;11.50;;
20653;SDS011;21083;50.898;4.902;2022-11-20T11:38:03;25.02;;;10.23;;
20653;SDS011;21083;50.898;4.902;2022-11-20T11:40:32;20.75;;;6.97;;
20653;SDS011;21083;50.898;4.902;2022-11-20T11:43:02;14.68;;;6.30;;
20653;SDS011;21083;50.898;4.902;2022-11-20T11:45:54;19.23;;;5.85;;
20653;SDS011;21083;50.898;4.902;2022-11-20T11:48:20;15.32;;;5.82;;
20653;SDS011;21083;50.898;4.902;2022-11-20T11:50:48;11.10;;;4.43;;
20653;SDS011;21083;50.898;4.902;2022-11-20T11:53:18;15.80;;;5.63;;
20653;SDS011;21083;50.898;4.902;2022-11-20T11:55:49;10.52;;;4.20;;
20653;SDS011;21083;50.898;4.902;2022-11-20T11:58:27;12.68;;;4.50;;
20653;SDS011;21083;50.898;4.902;2022-11-20T12:01:07;12.82;;;3.67;;
20653;SDS011;21083;50.898;4.902;2022-11-20T12:03:47;13.05;;;4.13;;
20653;SDS011;21083;50.898;4.902;2022-11-20T12:06:21;13.98;;;3.25;;
20653;SDS011;21083;50.898;4.902;2022-11-20T12:08:51;12.30;;;3.83;;
20653;SDS011;21083;50.898;4.902;2022-11-20T12:11:23;14.18;;;3.45;;
20653;SDS011;21083;50.898;4.902;2022-11-20T12:13:57;12.57;;;4.25;;
20653;SDS011;21083;50.898;4.902;2022-11-20T12:16:29;12.35;;;2.92;;
20653;SDS011;21083;50.898;4.902;2022-11-20T12:19:00;9.80;;;2.70;;
20653;SDS011;21083;50.898;4.902;2022-11-20T12:21:28;7.70;;;2.55;;
20653;SDS011;21083;50.898;4.902;2022-11-20T12:24:10;12.88;;;2.50;;
20653;SDS011;21083;50.898;4.902;2022-11-20T12:26:57;10.38;;;2.67;;
20653;SDS011;21083;50.898;4.902;2022-11-20T12:29:34;14.55;;;3.55;;
20653;SDS011;21083;50.898;4.902;2022-11-20T12:32:19;6.15;;;2.45;;
20653;SDS011;21083;50.898;4.902;2022-11-20T12:34:59;10.07;;;2.95;;
20653;SDS011;21083;50.898;4.902;2022-11-20T12:37:33;10.63;;;2.28;;
20653;SDS011;21083;50.898;4.902;2022-11-20T12:40:14;10.40;;;2.42;;
20653;SDS011;21083;50.898;4.902;2022-11-20T12:42:59;11.02;;;2.17;;
20653;SDS011;21083;50.898;4.902;2022-11-20T12:45:53;9.52;;;2.45;;
20653;SDS011;21083;50.898;4.902;2022-11-20T12:48:36;8.88;;;2.15;;
20653;SDS011;21083;50.898;4.902;2022-11-20T12:51:14;10.95;;;2.42;;
20653;SDS011;21083;50.898;4.902;2022-11-20T12:54:06;10.48;;;2.40;;
20653;SDS011;21083;50.898;4.902;2022-11-20T12:56:52;11.18;;;2.40;;
20653;SDS011;21083;50.898;4.902;2022-11-20T12:59:30;9.48;;;2.30;;
20653;SDS011;21083;50.898;4.902;2022-11-20T13:02:18;7.93;;;2.28;;
20653;SDS011;21083;50.898;4.902;2022-11-20T13:04:58;12.02;;;2.30;;
20653;SDS011;21083;50.898;4.902;2022-11-20T13:07:41;9.63;;;2.72;;
20653;SDS011;21083;50.898;4.902;2022-11-20T13:10:13;8.90;;;2.83;;
20653;SDS011;21083;50.898;4.902;2022-11-20T13:12:46;11.07;;;2.28;;
20653;SDS011;21083;50.898;4.902;2022-11-20T13:15:18;11.07;;;3.08;;
20653;SDS011;21083;50.898;4.902;2022-11-20T13:17:59;7.38;;;2.03;;
20653;SDS011;21083;50.898;4.902;2022-11-20T13:20:28;9.93;;;2.53;;
20653;SDS011;21083;50.898;4.902;2022-11-20T13:22:57;10.18;;;2.30;;
20653;SDS011;21083;50.898;4.902;2022-11-20T13:25:24;11.82;;;2.80;;
20653;SDS011;21083;50.898;4.902;2022-11-20T13:27:54;16.42;;;3.30;;
20653;SDS011;21083;50.898;4.902;2022-11-20T13:30:22;9.55;;;3.83;;
20653;SDS011;21083;50.898;4.902;2022-11-20T13:32:51;15.75;;;4.00;;
20653;SDS011;21083;50.898;4.902;2022-11-20T13:35:29;14.27;;;4.75;;
20653;SDS011;21083;50.898;4.902;2022-11-20T13:38:05;14.27;;;4.43;;
20653;SDS011;21083;50.898;4.902;2022-11-20T13:40:34;16.80;;;5.50;;
20653;SDS011;21083;50.898;4.902;2022-11-20T13:43:18;10.45;;;4.03;;
20653;SDS011;21083;50.898;4.902;2022-11-20T13:45:57;13.32;;;3.25;;
20653;SDS011;21083;50.898;4.902;2022-11-20T13:48:26;9.60;;;3.20;;
20653;SDS011;21083;50.898;4.902;2022-11-20T13:50:59;11.35;;;3.03;;
20653;SDS011;21083;50.898;4.902;2022-11-20T13:56:48;9.88;;;2.13;;
20653;SDS011;21083;50.898;4.902;2022-11-20T13:59:30;8.48;;;2.60;;
20653;SDS011;21083;50.898;4.902;2022-11-20T14:02:09;6.93;;;2.25;;
20653;SDS011;21083;50.898;4.902;2022-11-20T14:04:38;10.65;;;2.70;;
20653;SDS011;21083;50.898;4.902;2022-11-20T14:07:10;5.57;;;2.00;;
20653;SDS011;21083;50.898;4.902;2022-11-20T14:09:38;9.88;;;2.50;;
20653;SDS011;21083;50.898;4.902;2022-11-20T14:12:14;11.55;;;3.20;;
20653;SDS011;21083;50.898;4.902;2022-11-20T14:14:48;16.63;;;4.50;;
20653;SDS011;21083;50.898;4.902;2022-11-20T14:17:18;8.38;;;2.30;;
20653;SDS011;21083;50.898;4.902;2022-11-20T14:19:46;7.93;;;2.38;;
20653;SDS011;21083;50.898;4.902;2022-11-20T14:22:19;8.65;;;2.30;;
20653;SDS011;21083;50.898;4.902;2022-11-20T14:24:48;6.53;;;1.92;;
20653;SDS011;21083;50.898;4.902;2022-11-20T14:27:16;9.52;;;2.25;;
20653;SDS011;21083;50.898;4.902;2022-11-20T14:29:46;7.18;;;2.45;;
20653;SDS011;21083;50.898;4.902;2022-11-20T14:32:16;8.48;;;2.22;;
20653;SDS011;21083;50.898;4.902;2022-11-20T14:34:45;9.10;;;2.47;;
20653;SDS011;21083;50.898;4.902;2022-11-20T14:37:17;5.35;;;2.10;;
20653;SDS011;21083;50.898;4.902;2022-11-20T14:39:51;7.70;;;2.22;;
20653;SDS011;21083;50.898;4.902;2022-11-20T14:42:20;4.88;;;1.88;;
20653;SDS011;21083;50.898;4.902;2022-11-20T14:44:50;7.43;;;2.33;;
20653;SDS011;21083;50.898;4.902;2022-11-20T14:47:20;9.20;;;2.25;;
20653;SDS011;21083;50.898;4.902;2022-11-20T14:49:49;8.63;;;2.72;;